Canadian, TX

11:50 AM CDT on March 25, 2017 (GMT -0500)
Hemphill County

Weather History for KHHF - March, 2013

Change the Weather History Date:

Wednesday, March 27, 2013

  Actual Average (KPPA) Record (KPPA)
Temperature  
Mean Temperature 54 °F -  
Max Temperature 70 °F 66 °F 84 °F (2012)
Min Temperature 39 °F 36 °F 19 °F (2009)
Degree Days  
Heating Degree Days 10    
Growing Degree Days 4 (Base 50)    
Moisture  
Dew Point 22 °F    
Average Humidity 30    
Maximum Humidity 48    
Minimum Humidity 17    
Precipitation  
Precipitation 0.00 in - - ()
Sea Level Pressure  
Sea Level Pressure 30.02 in    
Wind  
Wind Speed 14 mph (SW)    
Max Wind Speed 25 mph    
Max Gust Speed 33 mph    
Visibility 10 miles    
Events      
Averages and records for this station are not official NWS values.
T = Trace of Precipitation, MM = Missing Value Source: NWS Daily Summary

Daily Weather History Graph

Daily Weather History Graph

Search for Another Location

Airport or City:

Trip Planner

Search our weather history database for the weather conditions in past years. The results will help you decide how hot, cold, wet, or windy it might be!

Date:

Astronomy

Mar. 27, 2013 Rise Set
Actual Time 7:34 AM CDT 7:59 PM CDT
Civil Twilight 7:09 AM CDT 8:25 PM CDT
Nautical Twilight 6:39 AM CDT 8:55 PM CDT
Astronomical Twilight 6:08 AM CDT 9:26 PM CDT
Moon 8:42 PM CDT (3/27) 7:28 AM CDT (3/27)
Length of Visible Light 13h 16m
Length of Day
12h 24m
Full, 100% of the Moon is Illuminated
Mar 27
Full
Apr 2
Last Quarter
Apr 10
New
Apr 18
First Quarter
Apr 25
Full

Hourly Weather History & Observations

Time (CDT) Temp. Windchill Dew Point Humidity Pressure Visibility Wind Dir Wind Speed Gust Speed Precip Events Conditions
12:15 AM 50.0 °F - 14.9 °F 25% 30.04 in 10.0 mi South 21.9 mph 32.2 mph N/A   Clear
12:35 AM 50.2 °F - 14.7 °F 24% 30.05 in 10.0 mi South 24.2 mph 33.4 mph N/A   Clear
12:55 AM 49.8 °F - 15.1 °F 25% 30.04 in 10.0 mi South 23.0 mph 32.2 mph N/A   Clear
1:15 AM 48.9 °F - 14.9 °F 26% 30.04 in 10.0 mi South 23.0 mph 32.2 mph N/A   Clear
1:35 AM 48.2 °F - 14.9 °F 26% 30.03 in 10.0 mi South 25.3 mph 32.2 mph N/A   Clear
1:55 AM 47.5 °F - 15.3 °F 28% 30.03 in 10.0 mi South 23.0 mph 31.1 mph N/A   Clear
2:15 AM 46.8 °F - 15.4 °F 29% 30.02 in 10.0 mi South 24.2 mph 32.2 mph N/A   Clear
2:35 AM 46.0 °F 37.8 °F 15.4 °F 29% 30.01 in 10.0 mi South 23.0 mph 33.4 mph N/A   Clear
2:55 AM 45.7 °F 37.6 °F 15.8 °F 30% 30.02 in 10.0 mi South 21.9 mph 28.8 mph N/A   Clear
3:15 AM 45.5 °F 37.8 °F 15.8 °F 30% 30.01 in 10.0 mi South 19.6 mph 28.8 mph N/A   Clear
3:35 AM 45.0 °F 38.2 °F 16.2 °F 32% 30.01 in 10.0 mi South 15.0 mph 27.6 mph N/A   Clear
3:55 AM 44.6 °F 38.8 °F 16.3 °F 32% 30.01 in 10.0 mi South 11.5 mph 23.0 mph N/A   Clear
4:15 AM 44.1 °F 37.7 °F 16.3 °F 33% 30.01 in 10.0 mi South 12.7 mph 20.7 mph N/A   Clear
4:35 AM 43.2 °F 37.4 °F 16.7 °F 35% 30.00 in 10.0 mi South 10.4 mph 20.7 mph N/A   Clear
4:55 AM 43.2 °F 37.0 °F 16.7 °F 35% 29.99 in 10.0 mi South 11.5 mph - N/A   Clear
5:15 AM 43.2 °F 37.4 °F 17.1 °F 35% 29.99 in 10.0 mi SSW 10.4 mph - N/A   Clear
5:35 AM 42.8 °F 38.0 °F 17.2 °F 36% 30.00 in 10.0 mi SSW 8.1 mph - N/A   Clear
5:55 AM 42.3 °F 38.6 °F 17.6 °F 37% 30.01 in 10.0 mi SSW 5.8 mph - N/A   Clear
6:15 AM 41.4 °F 37.6 °F 18.0 °F 39% 30.01 in 10.0 mi SSW 5.8 mph - N/A   Clear
6:35 AM 41.0 °F 36.4 °F 17.8 °F 39% 30.01 in 10.0 mi South 6.9 mph - N/A   Clear
6:55 AM 40.3 °F 35.5 °F 18.0 °F 41% 30.01 in 10.0 mi SSW 6.9 mph - N/A   Clear
7:15 AM 39.9 °F 35.1 °F 18.3 °F 42% 30.01 in 10.0 mi SSW 6.9 mph - N/A   Clear
7:35 AM 39.9 °F 35.1 °F 18.5 °F 42% 30.01 in 10.0 mi SSW 6.9 mph - N/A   Clear
7:55 AM 39.7 °F - 18.5 °F 42% 30.03 in 10.0 mi Calm Calm - N/A   Clear
8:15 AM 39.7 °F 34.9 °F 19.6 °F 44% 30.04 in 10.0 mi SSW 6.9 mph - N/A   Clear
8:35 AM 41.0 °F 35.8 °F 19.4 °F 42% 30.04 in 10.0 mi South 8.1 mph - N/A   Clear
8:55 AM 42.3 °F 35.5 °F 19.8 °F 41% 30.03 in 10.0 mi South 12.7 mph - N/A   Clear
9:15 AM 43.9 °F 37.9 °F 19.4 °F 38% 30.04 in 10.0 mi South 11.5 mph 17.3 mph N/A   Clear
9:35 AM 45.1 °F 38.4 °F 19.8 °F 36% 30.03 in 10.0 mi SSW 15.0 mph - N/A   Clear
9:55 AM 46.9 °F - 20.8 °F 36% 30.02 in 10.0 mi SSW 16.1 mph - N/A   Clear
10:15 AM 50.7 °F - 22.5 °F 33% 30.02 in 10.0 mi SSW 16.1 mph - N/A   Clear
10:35 AM 52.3 °F - 23.0 °F 32% 30.01 in 10.0 mi SW 19.6 mph - N/A   Clear
10:55 AM 54.0 °F - 23.7 °F 31% 30.01 in 10.0 mi SW 16.1 mph 21.9 mph N/A   Clear
11:15 AM 55.9 °F - 24.4 °F 30% 30.02 in 10.0 mi SW 18.4 mph - N/A   Clear
11:35 AM 58.3 °F - 24.6 °F 27% 30.01 in 10.0 mi WSW 13.8 mph 18.4 mph N/A   Clear
11:55 AM 61.2 °F - 25.2 °F 25% 30.01 in 10.0 mi WSW 12.7 mph 19.6 mph N/A   Clear
12:15 PM 62.6 °F - 21.6 °F 21% 30.01 in 10.0 mi West 11.5 mph 18.4 mph N/A   Clear
12:35 PM 63.3 °F - 23.0 °F 21% 30.02 in 10.0 mi WSW 10.4 mph 17.3 mph N/A   Clear
12:55 PM 63.7 °F - 22.6 °F 21% 30.02 in 10.0 mi WSW 9.2 mph - N/A   Clear
1:15 PM 64.9 °F - 23.0 °F 20% 30.01 in 10.0 mi West 9.2 mph 16.1 mph N/A   Clear
1:35 PM 64.9 °F - 23.0 °F 20% 30.01 in 10.0 mi Calm Calm - N/A   Clear
1:55 PM 66.2 °F - 23.5 °F 20% 30.00 in 10.0 mi NW 8.1 mph - N/A   Clear
2:15 PM 66.9 °F - 25.5 °F 21% 30.00 in 10.0 mi West 4.6 mph - N/A   Clear
2:35 PM 67.1 °F - 27.5 °F 23% 29.99 in 10.0 mi NW 10.4 mph - N/A   Clear
2:55 PM 68.0 °F - 25.9 °F 21% 29.99 in 10.0 mi NW 3.5 mph - N/A   Clear
3:15 PM 68.0 °F - 26.8 °F 21% 29.99 in 10.0 mi NNW 6.9 mph - N/A   Clear
3:35 PM 68.9 °F - 25.9 °F 20% 29.98 in 10.0 mi NW 4.6 mph - N/A   Clear
3:55 PM 68.9 °F - 26.8 °F 21% 29.98 in 10.0 mi NNW 9.2 mph - N/A   Clear
4:15 PM 69.1 °F - 25.5 °F 19% 29.98 in 10.0 mi WNW 5.8 mph - N/A   Clear
4:35 PM 70.2 °F - 25.0 °F 18% 29.98 in 10.0 mi North 5.8 mph - N/A   Clear
4:55 PM 70.0 °F - 24.1 °F 18% 29.98 in 10.0 mi NW 3.5 mph - N/A   Clear
5:15 PM 70.0 °F - 23.9 °F 18% 29.98 in 10.0 mi NNE 5.8 mph - N/A   Clear
5:35 PM 70.0 °F - 24.4 °F 18% 29.99 in 10.0 mi Calm Calm - N/A   Clear
5:55 PM 70.0 °F - 23.5 °F 17% 29.99 in 10.0 mi NNW 5.8 mph - N/A   Clear
6:15 PM 70.0 °F - 24.4 °F 18% 29.99 in 10.0 mi NNW 8.1 mph - N/A   Clear
6:35 PM 68.9 °F - 23.9 °F 18% 29.99 in 10.0 mi North 8.1 mph - N/A   Clear
6:55 PM 68.0 °F - 25.9 °F 21% 30.00 in 10.0 mi NNE 9.2 mph - N/A   Clear
7:15 PM 67.3 °F - 27.3 °F 22% 30.00 in 10.0 mi NNE 11.5 mph - N/A   Clear
7:35 PM 65.7 °F - 28.0 °F 24% 30.01 in 10.0 mi NNE 8.1 mph - N/A   Clear
7:55 PM 63.1 °F - 28.6 °F 27% 30.01 in 10.0 mi NNE 6.9 mph - N/A   Clear
8:15 PM 61.3 °F - 29.1 °F 30% 30.02 in 10.0 mi NE 5.8 mph - N/A   Clear
8:35 PM 59.9 °F - 29.7 °F 32% 30.02 in 10.0 mi NE 9.2 mph - N/A   Clear
8:55 PM 58.3 °F - 29.8 °F 34% 30.03 in 10.0 mi NE 6.9 mph - N/A   Clear
9:15 PM 56.1 °F - 29.8 °F 37% 30.04 in 10.0 mi NE 3.5 mph - N/A   Clear
9:35 PM 57.2 °F - 29.3 °F 35% 30.04 in 10.0 mi ENE 3.5 mph - N/A   Clear
9:55 PM 56.1 °F - 28.9 °F 35% 30.05 in 10.0 mi ENE 4.6 mph - N/A   Clear
10:15 PM 55.0 °F - 28.9 °F 37% 30.05 in 10.0 mi ENE 3.5 mph - N/A   Clear
10:35 PM 55.0 °F - 29.1 °F 37% 30.06 in 10.0 mi ENE 3.5 mph - N/A   Clear
10:55 PM 53.8 °F - 29.5 °F 39% 30.06 in 10.0 mi Calm Calm - N/A   Clear
11:15 PM 50.0 °F - 30.9 °F 48% 30.06 in 10.0 mi Calm Calm - N/A   Clear
11:35 PM 52.7 °F - 30.2 °F 42% 30.05 in 10.0 mi ENE 4.6 mph - N/A   Clear
11:55 PM 51.1 °F - 30.6 °F 45% 30.05 in 10.0 mi Calm Calm - N/A   Clear